Time;durP1;ratioP1;P1;durP2;ratioP2;P2;SDS_P1;SDS_P2;PMS_P1;PMS_P2;Temp;Humidity;BMP_temperature;BMP_pressure;BME280_temperature;BME280_humidity;BME280_pressure;Samples;Min_cycle;Max_cycle;Signal;HPM_P1;HPM_P2
2022/03/21 00:01:17;;;;;;;28.67;8.02;;;;;;;;;;4985399;28;20029;-56
2022/03/21 00:03:43;;;;;;;16.85;8.70;;;;;;;;;;4987365;28;20031;-57
2022/03/21 00:06:09;;;;;;;25.83;10.93;;;;;;;;;;4986533;28;20404;-57
2022/03/21 00:08:35;;;;;;;35.35;11.50;;;;;;;;;;4991825;28;20101;-57
2022/03/21 00:11:01;;;;;;;37.25;13.15;;;;;;;;;;4989102;28;20090;-57
2022/03/21 00:13:27;;;;;;;37.35;11.93;;;;;;;;;;4992489;28;20712;-57
2022/03/21 00:15:53;;;;;;;30.20;11.25;;;;;;;;;;4994473;28;20023;-57
2022/03/21 00:18:21;;;;;;;28.75;11.23;;;;;;;;;;4988429;28;20477;-56
2022/03/21 00:20:49;;;;;;;27.95;11.18;;;;;;;;;;4989852;28;20075;-57
2022/03/21 00:23:15;;;;;;;27.13;11.02;;;;;;;;;;4979595;28;20570;-57
2022/03/21 00:25:41;;;;;;;29.88;10.82;;;;;;;;;;4990934;28;20042;-57
2022/03/21 00:28:09;;;;;;;36.00;11.95;;;;;;;;;;4988564;28;20046;-57
2022/03/21 00:30:39;;;;;;;27.67;10.70;;;;;;;;;;4993158;28;20057;-57
2022/03/21 00:33:05;;;;;;;29.98;10.50;;;;;;;;;;4985471;28;20033;-57
2022/03/21 00:35:30;;;;;;;25.95;10.32;;;;;;;;;;4992780;28;20405;-57
2022/03/21 00:37:57;;;;;;;31.17;10.55;;;;;;;;;;4989012;28;20038;-57
2022/03/21 00:40:24;;;;;;;29.35;11.00;;;;;;;;;;4985360;28;20069;-57
2022/03/21 00:42:50;;;;;;;31.85;9.77;;;;;;;;;;4992471;28;20046;-57
2022/03/21 00:45:23;;;;;;;25.75;9.73;;;;;;;;;;4987099;28;20548;-57
2022/03/21 00:47:49;;;;;;;;;;;;;;;;;;4987697;28;20053;-58
2022/03/21 00:50:17;;;;;;;23.95;9.90;;;;;;;;;;4983550;28;19921;-57
2022/03/21 00:52:48;;;;;;;23.00;9.20;;;;;;;;;;4984367;28;20116;-57
2022/03/21 00:55:15;;;;;;;26.77;9.45;;;;;;;;;;4984303;28;20090;-57
2022/03/21 00:57:42;;;;;;;20.63;8.25;;;;;;;;;;4981324;28;20077;-57
2022/03/21 01:00:14;;;;;;;26.05;9.02;;;;;;;;;;4977652;28;20544;-56
2022/03/21 01:02:40;;;;;;;28.40;9.00;;;;;;;;;;4990795;28;20029;-57
2022/03/21 01:05:07;;;;;;;21.65;8.98;;;;;;;;;;4982934;28;20030;-56
2022/03/21 01:07:34;;;;;;;25.90;9.25;;;;;;;;;;4992701;28;20041;-58
2022/03/21 01:10:00;;;;;;;33.20;8.98;;;;;;;;;;4989940;28;20121;-57
2022/03/21 01:12:27;;;;;;;23.70;8.48;;;;;;;;;;4992663;28;20160;-56
2022/03/21 01:14:53;;;;;;;20.73;7.18;;;;;;;;;;4988330;28;20022;-57
2022/03/21 01:17:19;;;;;;;27.65;7.45;;;;;;;;;;5013255;28;20025;-56
2022/03/21 01:19:44;;;;;;;18.20;5.78;;;;;;;;;;4995866;28;20040;-57
2022/03/21 01:22:10;;;;;;;24.77;4.57;;;;;;;;;;4986712;28;20089;-57
2022/03/21 01:24:37;;;;;;;18.30;4.80;;;;;;;;;;4986993;28;20030;-57
2022/03/21 01:27:04;;;;;;;10.75;4.18;;;;;;;;;;4993742;28;20958;-57
2022/03/21 01:29:30;;;;;;;17.77;3.40;;;;;;;;;;4990619;28;20042;-57
2022/03/21 01:31:55;;;;;;;15.15;3.97;;;;;;;;;;4990747;28;20417;-56
2022/03/21 01:34:21;;;;;;;15.13;4.60;;;;;;;;;;4978848;28;20018;-56
2022/03/21 01:36:46;;;;;;;14.35;4.30;;;;;;;;;;4992386;28;20037;-57
2022/03/21 01:39:12;;;;;;;15.48;3.60;;;;;;;;;;4989925;28;20280;-57
2022/03/21 01:41:37;;;;;;;12.70;3.80;;;;;;;;;;4982476;28;20038;-57
2022/03/21 01:44:05;;;;;;;10.23;3.88;;;;;;;;;;4990189;28;20061;-57
2022/03/21 01:46:32;;;;;;;16.38;3.90;;;;;;;;;;4986778;28;20594;-56
2022/03/21 01:48:58;;;;;;;14.85;3.88;;;;;;;;;;4988059;28;20048;-57
2022/03/21 01:51:26;;;;;;;16.23;4.15;;;;;;;;;;4983537;28;20069;-57
2022/03/21 01:56:39;;;;;;;11.15;4.22;;;;;;;;;;4984635;28;20121;-56
2022/03/21 01:59:06;;;;;;;20.15;5.25;;;;;;;;;;4990906;28;20029;-57
2022/03/21 02:01:32;;;;;;;16.35;4.97;;;;;;;;;;4989659;28;20519;-57
2022/03/21 02:03:58;;;;;;;21.13;7.28;;;;;;;;;;4991877;28;20121;-56
2022/03/21 02:06:25;;;;;;;19.50;7.88;;;;;;;;;;4992280;28;20531;-56
2022/03/21 02:08:51;;;;;;;23.25;8.50;;;;;;;;;;4983468;28;20038;-57
2022/03/21 02:11:19;;;;;;;24.02;8.85;;;;;;;;;;4986869;28;20046;-57
2022/03/21 02:13:45;;;;;;;24.38;8.98;;;;;;;;;;4994520;28;20038;-57
2022/03/21 02:16:11;;;;;;;29.70;9.00;;;;;;;;;;4983577;28;20552;-56
2022/03/21 02:18:39;;;;;;;24.92;9.45;;;;;;;;;;4989494;28;20038;-57
2022/03/21 02:21:09;;;;;;;22.13;9.52;;;;;;;;;;4991713;28;20030;-57
2022/03/21 02:23:46;;;;;;;27.42;9.40;;;;;;;;;;4993587;28;20085;-56
2022/03/21 02:26:13;;;;;;;27.67;10.30;;;;;;;;;;4990124;28;20121;-56
2022/03/21 02:28:40;;;;;;;32.70;10.50;;;;;;;;;;4992224;28;20480;-57
2022/03/21 02:31:06;;;;;;;25.42;10.05;;;;;;;;;;4985113;28;20087;-57
2022/03/21 02:33:31;;;;;;;26.02;8.15;;;;;;;;;;4992210;28;20473;-57
2022/03/21 02:35:58;;;;;;;27.17;7.43;;;;;;;;;;4983583;28;20042;-56
2022/03/21 02:38:24;;;;;;;24.23;5.13;;;;;;;;;;4990280;28;20500;-56
2022/03/21 02:40:50;;;;;;;14.50;5.50;;;;;;;;;;4987470;28;20489;-56
2022/03/21 02:43:15;;;;;;;20.73;6.43;;;;;;;;;;4991006;28;20032;-56
2022/03/21 02:45:41;;;;;;;18.73;4.10;;;;;;;;;;4987393;28;20054;-56
2022/03/21 02:48:07;;;;;;;16.52;3.97;;;;;;;;;;4985308;28;20631;-57
2022/03/21 02:51:01;;;;;;;16.63;3.90;;;;;;;;;;4992457;28;20085;-57
2022/03/21 02:53:29;;;;;;;24.83;4.38;;;;;;;;;;4997483;28;20034;-56
2022/03/21 02:55:56;;;;;;;16.73;5.05;;;;;;;;;;4986522;28;20307;-56
2022/03/21 02:58:22;;;;;;;13.48;4.20;;;;;;;;;;4990423;28;20751;-57
2022/03/21 03:00:48;;;;;;;18.73;4.78;;;;;;;;;;4989819;28;20038;-57
2022/03/21 03:03:14;;;;;;;15.68;4.10;;;;;;;;;;4986973;28;20405;-57
2022/03/21 03:05:39;;;;;;;12.88;4.03;;;;;;;;;;4996992;28;20029;-57
2022/03/21 03:08:05;;;;;;;17.95;3.85;;;;;;;;;;4994407;28;20456;-57
2022/03/21 03:10:31;;;;;;;12.60;4.28;;;;;;;;;;4993999;28;20042;-57
2022/03/21 03:12:56;;;;;;;16.27;4.22;;;;;;;;;;4993221;28;20497;-57
2022/03/21 03:15:22;;;;;;;14.57;3.72;;;;;;;;;;4990394;28;20018;-57
2022/03/21 03:17:48;;;;;;;15.82;3.38;;;;;;;;;;4987020;28;20584;-56
2022/03/21 03:20:13;;;;;;;22.20;4.63;;;;;;;;;;4986866;28;20919;-57
2022/03/21 03:22:39;;;;;;;14.73;4.20;;;;;;;;;;4988805;28;20021;-56
2022/03/21 03:25:05;;;;;;;16.05;3.67;;;;;;;;;;4981376;28;20029;-57
2022/03/21 03:27:31;;;;;;;24.58;4.40;;;;;;;;;;4984142;28;20033;-56
2022/03/21 03:29:58;;;;;;;22.17;4.22;;;;;;;;;;4981867;28;20401;-56
2022/03/21 03:32:25;;;;;;;11.48;3.97;;;;;;;;;;4980849;28;20039;-56
2022/03/21 03:34:51;;;;;;;24.83;4.22;;;;;;;;;;4987949;28;20143;-56
2022/03/21 03:37:16;;;;;;;22.83;4.25;;;;;;;;;;4986685;28;20629;-57
2022/03/21 03:39:42;;;;;;;13.65;3.55;;;;;;;;;;4991304;28;20054;-56
2022/03/21 03:42:08;;;;;;;18.20;3.80;;;;;;;;;;4983456;28;20116;-57
2022/03/21 03:44:34;;;;;;;30.40;4.95;;;;;;;;;;4991439;28;20031;-57
2022/03/21 03:46:59;;;;;;;22.88;4.50;;;;;;;;;;4987840;28;20026;-57
2022/03/21 03:49:25;;;;;;;19.73;4.00;;;;;;;;;;4985578;28;20031;-57
2022/03/21 03:51:51;;;;;;;14.70;3.78;;;;;;;;;;4987889;28;20053;-55
2022/03/21 03:54:16;;;;;;;18.48;4.18;;;;;;;;;;4994057;28;20389;-56
2022/03/21 03:56:41;;;;;;;32.17;4.80;;;;;;;;;;4991728;28;20026;-57
2022/03/21 03:59:07;;;;;;;15.75;3.85;;;;;;;;;;4985899;28;20493;-55
2022/03/21 04:01:33;;;;;;;22.98;5.10;;;;;;;;;;4987002;28;20284;-56
2022/03/21 04:04:00;;;;;;;21.33;4.45;;;;;;;;;;4990554;28;20043;-57
2022/03/21 04:06:26;;;;;;;16.10;4.70;;;;;;;;;;4992300;28;20575;-56
2022/03/21 04:08:52;;;;;;;22.35;5.68;;;;;;;;;;4988993;28;20132;-57
2022/03/21 04:11:18;;;;;;;22.17;4.88;;;;;;;;;;4987383;28;20030;-56
2022/03/21 04:13:46;;;;;;;24.15;5.15;;;;;;;;;;4995570;28;20543;-57
2022/03/21 04:16:12;;;;;;;24.73;5.97;;;;;;;;;;4980303;28;20117;-56
2022/03/21 04:18:38;;;;;;;26.50;5.63;;;;;;;;;;4989202;28;20121;-56
2022/03/21 04:21:04;;;;;;;20.15;5.50;;;;;;;;;;4991382;28;20412;-56
2022/03/21 04:23:30;;;;;;;28.70;6.03;;;;;;;;;;4986800;28;20037;-56
2022/03/21 04:25:56;;;;;;;27.73;5.80;;;;;;;;;;4987290;28;20026;-57
2022/03/21 04:28:21;;;;;;;20.67;5.45;;;;;;;;;;4990856;28;20030;-56
2022/03/21 04:30:47;;;;;;;30.58;6.10;;;;;;;;;;4977284;28;20041;-56
2022/03/21 04:33:12;;;;;;;25.25;6.05;;;;;;;;;;4981249;28;20047;-56
2022/03/21 04:35:38;;;;;;;27.80;6.25;;;;;;;;;;4992293;28;20026;-57
2022/03/21 04:38:12;;;;;;;25.15;6.60;;;;;;;;;;4994338;28;20033;-56
2022/03/21 04:40:40;;;;;;;22.67;6.00;;;;;;;;;;4985856;28;20611;-57
2022/03/21 04:43:06;;;;;;;28.63;6.40;;;;;;;;;;4990984;28;20038;-57
2022/03/21 04:45:31;;;;;;;18.67;6.05;;;;;;;;;;4994758;28;20038;-56
2022/03/21 04:47:57;;;;;;;28.42;5.85;;;;;;;;;;4986659;28;20035;-56
2022/03/21 04:50:23;;;;;;;20.08;5.63;;;;;;;;;;4989651;28;20100;-57
2022/03/21 04:52:48;;;;;;;29.88;6.85;;;;;;;;;;4987029;28;20034;-57
2022/03/21 04:55:15;;;;;;;23.30;6.90;;;;;;;;;;4991847;28;20571;-56
2022/03/21 04:57:42;;;;;;;22.30;6.32;;;;;;;;;;4992935;28;20049;-57
2022/03/21 05:00:08;;;;;;;20.75;6.07;;;;;;;;;;4984528;28;20030;-57
2022/03/21 05:02:34;;;;;;;21.60;5.68;;;;;;;;;;4989148;28;20460;-56
2022/03/21 05:04:59;;;;;;;18.60;5.60;;;;;;;;;;4994335;28;20030;-55
2022/03/21 05:07:25;;;;;;;25.45;6.03;;;;;;;;;;4989197;28;20767;-57
2022/03/21 05:09:51;;;;;;;24.88;6.88;;;;;;;;;;4984509;28;20488;-57
2022/03/21 05:12:17;;;;;;;23.58;6.45;;;;;;;;;;4988846;28;20038;-56
2022/03/21 05:14:42;;;;;;;26.02;7.03;;;;;;;;;;4989008;28;20026;-57
2022/03/21 05:17:10;;;;;;;33.47;7.15;;;;;;;;;;4990022;28;20030;-57
2022/03/21 05:19:36;;;;;;;23.73;7.07;;;;;;;;;;4986372;28;20038;-57
2022/03/21 05:22:06;;;;;;;20.20;6.80;;;;;;;;;;4989619;28;20515;-56
2022/03/21 05:35:52;;;;;;;24.45;6.97;;;;;;;;;;4989455;28;20096;-56
2022/03/21 05:38:19;;;;;;;23.85;6.28;;;;;;;;;;4992130;28;20048;-57
2022/03/21 05:40:45;;;;;;;22.55;7.93;;;;;;;;;;4985754;28;20046;-57
2022/03/21 05:43:10;;;;;;;25.15;7.93;;;;;;;;;;4991853;28;20038;-57
2022/03/21 05:45:36;;;;;;;21.85;7.85;;;;;;;;;;4985481;28;20034;-56
2022/03/21 05:50:45;;;;;;;25.30;7.85;;;;;;;;;;4991589;28;20045;-57
2022/03/21 05:53:11;;;;;;;21.77;7.30;;;;;;;;;;4994262;28;20026;-57
2022/03/21 05:55:36;;;;;;;32.45;7.15;;;;;;;;;;4989072;28;20014;-56
2022/03/21 05:58:02;;;;;;;17.80;6.80;;;;;;;;;;4988301;28;20037;-56
2022/03/21 06:00:28;;;;;;;29.58;7.18;;;;;;;;;;4991568;28;20405;-56
2022/03/21 06:02:54;;;;;;;27.13;7.47;;;;;;;;;;4980590;28;20089;-57
2022/03/21 06:05:23;;;;;;;22.10;7.38;;;;;;;;;;4992655;28;20081;-56
2022/03/21 06:07:51;;;;;;;22.08;7.55;;;;;;;;;;4991710;28;20113;-57
2022/03/21 06:10:17;;;;;;;25.55;7.13;;;;;;;;;;4986653;28;20117;-56
2022/03/21 06:12:43;;;;;;;23.17;6.60;;;;;;;;;;4983224;28;20105;-57
2022/03/21 06:15:09;;;;;;;20.38;7.40;;;;;;;;;;4991652;28;20026;-56
2022/03/21 06:17:42;;;;;;;27.83;6.97;;;;;;;;;;4996262;28;20030;-57
2022/03/21 06:20:11;;;;;;;26.45;6.82;;;;;;;;;;4985782;28;20066;-57
2022/03/21 06:22:37;;;;;;;16.15;6.78;;;;;;;;;;4988308;28;20054;-57
2022/03/21 06:25:04;;;;;;;24.83;7.68;;;;;;;;;;4989819;28;20127;-57
2022/03/21 06:27:30;;;;;;;19.45;6.95;;;;;;;;;;4995416;28;20038;-56
2022/03/21 06:29:55;;;;;;;17.02;6.70;;;;;;;;;;4993154;28;20041;-56
2022/03/21 06:32:21;;;;;;;18.27;6.82;;;;;;;;;;4993701;28;20718;-56
2022/03/21 06:34:47;;;;;;;18.88;7.35;;;;;;;;;;4981646;28;20138;-57
2022/03/21 06:37:13;;;;;;;23.75;7.07;;;;;;;;;;4994661;28;20052;-56
2022/03/21 06:39:38;;;;;;;20.13;6.82;;;;;;;;;;4986502;28;20054;-57
2022/03/21 06:42:04;;;;;;;18.77;7.18;;;;;;;;;;4990675;28;20457;-56
2022/03/21 06:44:30;;;;;;;26.58;7.80;;;;;;;;;;4992541;28;20413;-57
2022/03/21 06:46:57;;;;;;;25.08;7.55;;;;;;;;;;4986609;28;20038;-56
2022/03/21 06:49:29;;;;;;;32.35;7.82;;;;;;;;;;4992345;28;20540;-56
2022/03/21 06:51:56;;;;;;;37.13;11.07;;;;;;;;;;4991846;28;20487;-56
2022/03/21 06:54:21;;;;;;;22.30;7.43;;;;;;;;;;4987095;28;20030;-56
2022/03/21 06:56:47;;;;;;;24.42;8.13;;;;;;;;;;4988592;28;20045;-56
2022/03/21 06:59:12;;;;;;;21.08;7.10;;;;;;;;;;4984345;28;20022;-57
2022/03/21 07:01:38;;;;;;;23.15;8.55;;;;;;;;;;4989448;28;20074;-57
2022/03/21 07:04:04;;;;;;;24.02;8.60;;;;;;;;;;4985553;28;20034;-56
2022/03/21 07:06:29;;;;;;;22.40;8.10;;;;;;;;;;4982987;28;20121;-57
2022/03/21 07:08:55;;;;;;;23.98;8.63;;;;;;;;;;4983584;28;20629;-57
2022/03/21 07:11:21;;;;;;;28.30;8.18;;;;;;;;;;4988621;28;20030;-56
2022/03/21 07:13:47;;;;;;;24.25;8.35;;;;;;;;;;4986167;28;20072;-57
2022/03/21 07:16:16;;;;;;;24.38;9.05;;;;;;;;;;4985499;28;20054;-56
2022/03/21 07:18:42;;;;;;;26.38;9.93;;;;;;;;;;4984776;28;20065;-57
2022/03/21 07:21:08;;;;;;;27.70;10.93;;;;;;;;;;4988459;28;20041;-57
2022/03/21 07:23:34;;;;;;;31.35;9.52;;;;;;;;;;4985260;28;20026;-56
2022/03/21 07:26:00;;;;;;;35.58;10.48;;;;;;;;;;4982989;28;20040;-56
2022/03/21 07:28:26;;;;;;;29.67;10.60;;;;;;;;;;4986481;28;20420;-56
2022/03/21 07:30:52;;;;;;;27.05;9.30;;;;;;;;;;4987819;28;20038;-57
2022/03/21 07:33:18;;;;;;;33.83;10.75;;;;;;;;;;4991388;28;20088;-56
2022/03/21 07:35:44;;;;;;;26.25;10.27;;;;;;;;;;4985587;28;20038;-56
2022/03/21 07:38:10;;;;;;;26.40;10.38;;;;;;;;;;4986829;28;20492;-56
2022/03/21 07:40:35;;;;;;;29.50;11.38;;;;;;;;;;4983712;28;20076;-57
2022/03/21 07:43:01;;;;;;;32.17;12.00;;;;;;;;;;4977728;28;20093;-57
2022/03/21 07:48:11;;;;;;;24.85;10.13;;;;;;;;;;4983648;28;20041;-56
2022/03/21 07:50:37;;;;;;;26.42;10.77;;;;;;;;;;4979002;28;20042;-58
2022/03/21 07:53:04;;;;;;;25.13;10.10;;;;;;;;;;4985523;28;20045;-55
2022/03/21 07:55:31;;;;;;;22.13;9.07;;;;;;;;;;4982986;28;20113;-58
2022/03/21 07:57:57;;;;;;;20.70;9.15;;;;;;;;;;4983929;28;20034;-58
2022/03/21 08:00:26;;;;;;;22.20;10.57;;;;;;;;;;4991272;28;20042;-55
2022/03/21 08:02:52;;;;;;;31.85;9.82;;;;;;;;;;4988006;28;20527;-58
2022/03/21 08:05:17;;;;;;;26.50;10.55;;;;;;;;;;4983937;28;20038;-58
2022/03/21 08:07:43;;;;;;;23.58;9.68;;;;;;;;;;4985102;28;20093;-55
2022/03/21 08:10:10;;;;;;;20.35;10.82;;;;;;;;;;4990090;28;20041;-55
2022/03/21 08:12:36;;;;;;;29.52;11.23;;;;;;;;;;4989157;28;20033;-58
2022/03/21 08:15:03;;;;;;;23.42;11.13;;;;;;;;;;4989594;28;20015;-56
2022/03/21 08:17:30;;;;;;;25.25;10.43;;;;;;;;;;4985728;28;20026;-56
2022/03/21 08:19:56;;;;;;;28.30;11.57;;;;;;;;;;4988676;28;20117;-56
2022/03/21 08:22:22;;;;;;;23.95;11.18;;;;;;;;;;4989494;28;20022;-56
2022/03/21 08:24:48;;;;;;;26.85;11.05;;;;;;;;;;4987701;28;20042;-57
2022/03/21 08:27:14;;;;;;;24.90;10.77;;;;;;;;;;4983491;28;20034;-55
2022/03/21 08:29:40;;;;;;;29.05;10.18;;;;;;;;;;4990994;28;20401;-56
2022/03/21 08:32:07;;;;;;;26.63;10.65;;;;;;;;;;4990375;28;20019;-56
2022/03/21 08:34:32;;;;;;;29.70;11.35;;;;;;;;;;4976785;28;20038;-57
2022/03/21 08:36:58;;;;;;;33.72;9.30;;;;;;;;;;4984059;28;20034;-56
2022/03/21 08:39:23;;;;;;;20.23;8.98;;;;;;;;;;4985253;28;20085;-57
2022/03/21 08:41:49;;;;;;;29.60;11.88;;;;;;;;;;4989911;28;20045;-60
2022/03/21 08:44:15;;;;;;;26.80;12.00;;;;;;;;;;4988322;28;20041;-56
2022/03/21 08:46:40;;;;;;;24.38;10.05;;;;;;;;;;4989104;28;20280;-58
2022/03/21 08:49:24;;;;;;;27.20;11.05;;;;;;;;;;4987637;28;20170;-58
2022/03/21 08:51:50;;;;;;;22.27;10.60;;;;;;;;;;4985767;28;20034;-57
2022/03/21 08:54:16;;;;;;;23.75;9.70;;;;;;;;;;4983788;28;20066;-57
2022/03/21 08:56:42;;;;;;;24.13;11.02;;;;;;;;;;4982856;28;20062;-57
2022/03/21 08:59:08;;;;;;;29.60;12.07;;;;;;;;;;4986286;28;20477;-61
2022/03/21 09:01:34;;;;;;;28.00;12.73;;;;;;;;;;4980227;28;20066;-57
2022/03/21 09:04:03;;;;;;;32.00;12.65;;;;;;;;;;4984068;28;20057;-57
2022/03/21 09:06:29;;;;;;;26.48;11.48;;;;;;;;;;4979463;28;20073;-56
2022/03/21 09:08:55;;;;;;;38.17;12.38;;;;;;;;;;4974125;28;20584;-56
2022/03/21 09:11:21;;;;;;;26.35;10.80;;;;;;;;;;4984024;28;20130;-56
2022/03/21 09:13:48;;;;;;;29.42;12.43;;;;;;;;;;4979794;28;20113;-56
2022/03/21 09:16:15;;;;;;;27.30;11.35;;;;;;;;;;4980383;28;20038;-57
2022/03/21 09:18:41;;;;;;;25.33;11.57;;;;;;;;;;4974191;28;20077;-57
2022/03/21 09:21:07;;;;;;;35.88;12.00;;;;;;;;;;4979314;28;20034;-57
2022/03/21 09:23:33;;;;;;;27.25;11.10;;;;;;;;;;4985719;28;20030;-57
2022/03/21 09:26:01;;;;;;;26.27;10.90;;;;;;;;;;4990418;28;20030;-57
2022/03/21 09:28:28;;;;;;;42.28;11.98;;;;;;;;;;4982066;28;20125;-57
2022/03/21 09:30:54;;;;;;;28.95;10.95;;;;;;;;;;4981056;28;20036;-56
2022/03/21 09:33:19;;;;;;;24.85;9.43;;;;;;;;;;4983512;28;20038;-57
2022/03/21 09:35:47;;;;;;;27.75;10.98;;;;;;;;;;4986006;28;20064;-58
2022/03/21 09:38:14;;;;;;;31.75;11.20;;;;;;;;;;4978670;28;20033;-57
2022/03/21 15:52:04;;;;;;;37.28;15.40;;;;;;;;;;4789378;26;20454;-81
2022/03/21 15:54:38;;;;;;;29.70;14.32;;;;;;;;;;4991711;28;20086;-81
2022/03/21 15:57:43;;;;;;;31.92;13.15;;;;;;;;;;4994620;28;20038;-79
2022/03/21 16:03:23;;;;;;;26.13;12.97;;;;;;;;;;4972378;28;20038;-81
2022/03/21 16:06:01;;;;;;;33.55;14.10;;;;;;;;;;4994019;28;20034;-81
2022/03/21 16:37:49;;;;;;;28.65;15.13;;;;;;;;;;5093364;27;20445;-58
2022/03/21 16:40:18;;;;;;;35.10;14.80;;;;;;;;;;5089651;28;20040;-57
2022/03/21 16:42:44;;;;;;;33.50;15.55;;;;;;;;;;5097907;28;20141;-58
2022/03/21 16:45:10;;;;;;;32.15;16.70;;;;;;;;;;5097446;28;20118;-57
2022/03/21 16:47:37;;;;;;;28.42;15.57;;;;;;;;;;5098806;28;20035;-57
2022/03/21 16:50:10;;;;;;;37.63;16.02;;;;;;;;;;5093513;28;20134;-57
2022/03/21 16:52:37;;;;;;;36.10;17.30;;;;;;;;;;5097042;28;20486;-57
2022/03/21 16:55:05;;;;;;;36.35;15.98;;;;;;;;;;5097883;28;20409;-57
2022/03/21 16:57:31;;;;;;;33.83;16.35;;;;;;;;;;5100134;28;20032;-56
2022/03/21 16:59:56;;;;;;;29.67;15.55;;;;;;;;;;5091319;28;20028;-57
2022/03/21 17:02:23;;;;;;;34.65;17.23;;;;;;;;;;5096277;28;20378;-56
2022/03/21 17:04:50;;;;;;;37.92;17.23;;;;;;;;;;5096183;27;20889;-57
2022/03/21 17:07:17;;;;;;;36.05;16.08;;;;;;;;;;5098230;28;20078;-57
2022/03/21 17:09:43;;;;;;;33.20;16.10;;;;;;;;;;5093514;28;20489;-57
2022/03/21 17:12:11;;;;;;;40.72;15.77;;;;;;;;;;5101136;28;20544;-56
2022/03/21 17:14:44;;;;;;;38.55;17.65;;;;;;;;;;5095294;27;20036;-57
2022/03/21 17:17:12;;;;;;;45.85;16.58;;;;;;;;;;5100196;28;20492;-56
2022/03/21 17:25:10;;;;;;;35.83;14.95;;;;;;;;;;5089869;27;20035;-57
2022/03/21 17:27:36;;;;;;;37.50;16.40;;;;;;;;;;5099777;28;20019;-57
2022/03/21 17:30:05;;;;;;;37.08;16.23;;;;;;;;;;5094504;28;20023;-57
2022/03/21 17:32:31;;;;;;;41.45;16.08;;;;;;;;;;5089588;28;20032;-56
2022/03/21 17:34:58;;;;;;;33.90;15.63;;;;;;;;;;5092290;28;20098;-57
2022/03/21 17:37:25;;;;;;;38.92;16.33;;;;;;;;;;5086898;28;20040;-57
2022/03/21 17:39:52;;;;;;;39.97;17.25;;;;;;;;;;5087026;27;20029;-57
2022/03/21 17:42:21;;;;;;;37.50;16.20;;;;;;;;;;5093539;28;20035;-56
2022/03/21 17:44:47;;;;;;;42.95;16.73;;;;;;;;;;5088557;28;20479;-56
2022/03/21 17:47:13;;;;;;;47.80;16.88;;;;;;;;;;5089058;28;20060;-56
2022/03/21 17:49:39;;;;;;;30.73;15.32;;;;;;;;;;5075785;28;20037;-56
2022/03/21 17:52:07;;;;;;;36.95;15.38;;;;;;;;;;5078198;28;20033;-57
2022/03/21 17:54:33;;;;;;;43.35;16.75;;;;;;;;;;5074053;28;20032;-56
2022/03/21 17:57:03;;;;;;;37.28;16.25;;;;;;;;;;5073373;28;20119;-56
2022/03/21 17:59:30;;;;;;;33.35;15.82;;;;;;;;;;5084969;28;20483;-56
2022/03/21 18:01:56;;;;;;;37.72;16.95;;;;;;;;;;5085592;28;20401;-56
2022/03/21 18:04:22;;;;;;;38.78;16.02;;;;;;;;;;5080675;28;20040;-56
2022/03/21 18:06:48;;;;;;;39.25;16.98;;;;;;;;;;5085214;28;20399;-56
2022/03/21 18:09:14;;;;;;;38.97;16.38;;;;;;;;;;5082320;28;20105;-56
2022/03/21 18:11:41;;;;;;;38.45;16.45;;;;;;;;;;5080844;28;20063;-56
2022/03/21 18:14:07;;;;;;;39.58;15.77;;;;;;;;;;5081431;28;20028;-56
2022/03/21 18:16:34;;;;;;;34.63;16.20;;;;;;;;;;5075219;28;20478;-56
2022/03/21 18:19:44;;;;;;;34.63;16.33;;;;;;;;;;5077739;28;20560;-57
2022/03/21 18:21:56;;;;;;;36.00;15.00;;;;;;;;;;5076816;28;20089;-56
2022/03/21 18:24:27;;;;;;;36.13;15.65;;;;;;;;;;5079956;28;20032;-57
2022/03/21 18:26:54;;;;;;;38.40;16.67;;;;;;;;;;5071240;28;20032;-56
2022/03/21 18:29:21;;;;;;;42.28;16.48;;;;;;;;;;5079569;28;20272;-57
2022/03/21 18:31:47;;;;;;;45.80;17.00;;;;;;;;;;5070717;28;20036;-56
2022/03/21 18:34:13;;;;;;;41.35;17.23;;;;;;;;;;5071689;28;20093;-57
2022/03/21 18:36:39;;;;;;;39.80;17.10;;;;;;;;;;5068658;28;20055;-56
2022/03/21 18:39:05;;;;;;;40.15;16.05;;;;;;;;;;5074027;28;20036;-56
2022/03/21 18:41:32;;;;;;;39.67;17.98;;;;;;;;;;5078867;28;20028;-56
2022/03/21 18:43:59;;;;;;;46.50;18.90;;;;;;;;;;5077812;28;20510;-56
2022/03/21 18:46:27;;;;;;;45.63;21.55;;;;;;;;;;5074854;28;20033;-56
2022/03/21 18:48:53;;;;;;;54.55;21.33;;;;;;;;;;5070210;28;20471;-56
2022/03/21 18:51:19;;;;;;;60.50;19.83;;;;;;;;;;5079348;28;20040;-57
2022/03/21 18:53:45;;;;;;;41.75;16.95;;;;;;;;;;5078700;28;20032;-56
2022/03/21 18:56:11;;;;;;;36.92;17.80;;;;;;;;;;5072956;28;20033;-56
2022/03/21 18:58:37;;;;;;;36.85;16.55;;;;;;;;;;5078213;28;20379;-56
2022/03/21 19:01:03;;;;;;;38.25;15.10;;;;;;;;;;5075804;28;20032;-56
2022/03/21 19:03:31;;;;;;;39.63;17.50;;;;;;;;;;5077980;28;20395;-56
2022/03/21 19:05:57;;;;;;;39.15;16.02;;;;;;;;;;5076988;28;20028;-56
2022/03/21 19:08:23;;;;;;;42.13;16.88;;;;;;;;;;5083497;28;20032;-56
2022/03/21 19:10:49;;;;;;;35.35;15.82;;;;;;;;;;5075309;28;20029;-56
2022/03/21 19:13:15;;;;;;;42.55;16.42;;;;;;;;;;5076430;28;20059;-56
2022/03/21 19:15:41;;;;;;;45.42;16.65;;;;;;;;;;5072365;28;20032;-55
2022/03/21 19:18:07;;;;;;;34.53;17.08;;;;;;;;;;5085206;28;20487;-56
2022/03/21 19:20:34;;;;;;;51.28;18.90;;;;;;;;;;5075384;28;20036;-56
2022/03/21 19:23:00;;;;;;;45.80;17.50;;;;;;;;;;5077403;28;20032;-56
2022/03/21 19:25:26;;;;;;;40.45;16.27;;;;;;;;;;5076960;28;20066;-56
2022/03/21 19:27:52;;;;;;;47.38;17.63;;;;;;;;;;5078014;28;21409;-56
2022/03/21 19:30:19;;;;;;;42.95;16.42;;;;;;;;;;5072424;28;20122;-56
2022/03/21 19:32:46;;;;;;;41.22;15.88;;;;;;;;;;5072425;28;20046;-56
2022/03/21 19:35:15;;;;;;;38.70;15.20;;;;;;;;;;5076142;28;20158;-56
2022/03/21 19:37:43;;;;;;;37.78;16.42;;;;;;;;;;5082241;28;20560;-56
2022/03/21 19:40:09;;;;;;;42.17;16.52;;;;;;;;;;5079931;28;20411;-56
2022/03/21 19:42:42;;;;;;;41.10;16.15;;;;;;;;;;5077329;28;20097;-56
2022/03/21 19:45:09;;;;;;;36.72;16.77;;;;;;;;;;5074070;28;20050;-56
2022/03/21 19:47:37;;;;;;;46.88;17.55;;;;;;;;;;5078384;28;20015;-56
2022/03/21 19:50:05;;;;;;;47.08;17.85;;;;;;;;;;5067325;28;20059;-55
2022/03/21 19:52:31;;;;;;;46.58;18.75;;;;;;;;;;5074086;28;20118;-56
2022/03/21 19:54:57;;;;;;;40.88;18.00;;;;;;;;;;5083868;28;20040;-56
2022/03/21 19:57:23;;;;;;;45.33;18.55;;;;;;;;;;5079761;28;20545;-56
2022/03/21 19:59:50;;;;;;;47.88;19.45;;;;;;;;;;5077903;28;20041;-56
2022/03/21 20:02:16;;;;;;;54.22;20.15;;;;;;;;;;5078349;28;20044;-56
2022/03/21 20:04:42;;;;;;;43.67;18.55;;;;;;;;;;5070173;28;20439;-56
2022/03/21 20:07:08;;;;;;;43.88;19.67;;;;;;;;;;5076181;28;20085;-56
2022/03/21 20:09:34;;;;;;;46.22;18.38;;;;;;;;;;5079161;28;20123;-56
2022/03/21 20:12:00;;;;;;;43.05;18.40;;;;;;;;;;5078107;28;20554;-56
2022/03/21 20:14:27;;;;;;;50.17;19.00;;;;;;;;;;5077636;28;20032;-57
2022/03/21 20:16:53;;;;;;;38.67;17.95;;;;;;;;;;5075636;28;20077;-56
2022/03/21 20:19:19;;;;;;;38.50;17.55;;;;;;;;;;5069287;28;20482;-56
2022/03/21 20:21:45;;;;;;;45.55;18.35;;;;;;;;;;5074776;28;20044;-57
2022/03/21 20:24:11;;;;;;;42.03;18.83;;;;;;;;;;5076179;28;20077;-56
2022/03/21 20:26:37;;;;;;;41.33;18.15;;;;;;;;;;5075829;28;20042;-56
2022/03/21 20:29:04;;;;;;;48.80;19.48;;;;;;;;;;5074145;28;20029;-56
2022/03/21 20:31:30;;;;;;;46.38;18.80;;;;;;;;;;5072140;28;20039;-57
2022/03/21 20:33:56;;;;;;;51.17;19.10;;;;;;;;;;5082394;28;20032;-57
2022/03/21 20:36:22;;;;;;;64.72;20.73;;;;;;;;;;5076886;28;20117;-56
2022/03/21 20:38:48;;;;;;;49.85;19.95;;;;;;;;;;5076426;28;20482;-57
2022/03/21 20:41:14;;;;;;;49.00;19.95;;;;;;;;;;5075536;28;20036;-57
2022/03/21 20:43:41;;;;;;;48.53;19.20;;;;;;;;;;5072547;28;20116;-57
2022/03/21 20:46:10;;;;;;;45.35;19.80;;;;;;;;;;5082864;28;20115;-57
2022/03/21 20:48:37;;;;;;;47.35;18.75;;;;;;;;;;5081415;28;20040;-57
2022/03/21 20:51:04;;;;;;;45.05;19.27;;;;;;;;;;5075504;28;20123;-57
2022/03/21 20:53:31;;;;;;;45.67;19.23;;;;;;;;;;5073018;28;20050;-56
2022/03/21 20:55:57;;;;;;;49.00;19.73;;;;;;;;;;5076426;28;20059;-55
2022/03/21 20:58:23;;;;;;;48.17;20.00;;;;;;;;;;5080520;28;20028;-56
2022/03/21 21:00:49;;;;;;;52.70;20.55;;;;;;;;;;5080480;28;20028;-56
2022/03/21 21:03:18;;;;;;;43.72;19.17;;;;;;;;;;5074353;28;20032;-56
2022/03/21 21:05:45;;;;;;;45.58;19.45;;;;;;;;;;5077092;28;20546;-56
2022/03/21 21:08:11;;;;;;;52.63;18.55;;;;;;;;;;5075223;28;20028;-56
2022/03/21 21:10:55;;;;;;;50.70;19.52;;;;;;;;;;5082124;28;20087;-56
2022/03/21 21:13:25;;;;;;;38.38;18.40;;;;;;;;;;5076398;28;20697;-55
2022/03/21 21:15:52;;;;;;;55.25;19.08;;;;;;;;;;5076959;28;20402;-57
2022/03/21 21:18:20;;;;;;;44.08;19.33;;;;;;;;;;5075349;28;20016;-57
2022/03/21 21:20:47;;;;;;;53.53;23.58;;;;;;;;;;5077781;28;20105;-57
2022/03/21 21:23:14;;;;;;;55.08;23.63;;;;;;;;;;5078460;28;20461;-56
2022/03/21 21:25:42;;;;;;;50.17;23.55;;;;;;;;;;5079504;28;20137;-57
2022/03/21 21:28:09;;;;;;;52.80;23.13;;;;;;;;;;5070184;28;20044;-56
2022/03/21 21:30:37;;;;;;;47.53;22.15;;;;;;;;;;5075205;28;20040;-56